Latest Coastal Weather Observations for Hogan Island

IDT60701

Issued at 10:21 am EDT Monday 15 February 2016 (issued every 10 minutes, with the page automatically refreshed every 10 minutes)

About coastal observations | Map of coastal stations | Coastal observations for TAS | Marine services | Other Formats
Station Details ID: 200838 Name: HOGAN ISLAND Lat: -39.22 Lon: 146.98 Height: 116.0 m
Data from the previous 72 hours. | See also: Recent months at Hogan Island
Date/Time
EDT
Temp

°C
Wind Pressure Rain
since 9am
mm
Weather Cloud Vis
km
Sea
Height
m
Swell
Dir
 
Speed
knots
Gust
knots
hPa Trend Height
m
Period
s
Dir
15/10:00am 18.1 W 14 16 1011.9 - 0.0 - - - - - - -
15/09:30am 17.7 W 15 18 1012.1 - 0.0 - - - - - - -
15/09:00am 16.7 W 15 18 1011.8 - 0.6 - - - - - - -
15/08:30am 16.5 W 15 18 1011.8 - 0.6 - - - - - - -
15/08:00am 15.6 W 14 17 1011.8 - 0.6 - - - - - - -
15/07:30am 15.0 W 16 19 1011.8 - 0.6 - - - - - - -
15/07:00am 14.9 WNW 13 16 1011.8 - 0.4 - - - - - - -
15/06:30am 14.4 WNW 15 19 1011.8 - 0.4 - - - - - - -
15/06:00am 14.7 NW 8 10 1011.4 - 0.4 - - - - - - -
15/05:30am 14.1 WNW 6 8 1011.6 - 0.4 - - - - - - -
15/05:00am 14.2 WSW 6 14 1011.7 - 0.2 - - - - - - -
15/04:30am 15.4 WSW 10 13 1011.7 - 0.0 - - - - - - -
15/04:00am 15.3 SW 16 19 1011.9 - 0.0 - - - - - - -
15/03:30am 16.3 W 13 16 1012.0 - 0.0 - - - - - - -
15/03:00am 16.0 WSW 14 17 1011.9 - 0.0 - - - - - - -
15/02:30am 16.8 W 19 21 1012.2 - 0.0 - - - - - - -
15/02:00am 16.7 W 17 19 1012.3 - 0.0 - - - - - - -
15/01:30am 16.5 W 17 20 1012.6 - 0.0 - - - - - - -
15/01:00am 16.3 W 17 21 1012.6 - 0.0 - - - - - - -
15/12:30am 16.3 WSW 20 25 1012.6 - 0.0 - - - - - - -
15/12:00am 16.2 WSW 20 23 1012.3 - 0.0 - - - - - - -
 
Date/Time
EDT
Temp

°C
Wind Pressure Rain
since 9am
mm
Weather Cloud Vis
km
Sea
Height
m
Swell
Dir
 
Speed
knots
Gust
knots
hPa Trend Height
m
Period
s
Dir
14/11:30pm 16.7 WSW 21 25 1012.7 - 0.0 - - - - - - -
14/11:00pm 16.7 WSW 21 27 1012.8 - 0.0 - - - - - - -
14/10:30pm 16.7 WSW 23 26 1012.7 - 0.0 - - - - - - -
14/10:00pm 16.5 WSW 24 28 1012.4 - 0.0 - - - - - - -
14/09:30pm 16.6 WSW 24 28 1012.3 - 0.0 - - - - - - -
14/09:00pm 16.7 WSW 25 29 1011.4 - 0.0 - - - - - - -
14/08:30pm 16.5 WSW 26 30 1011.4 - 0.0 - - - - - - -
14/07:30pm 17.7 W 27 31 1010.4 - 0.0 - - - - - - -
14/07:00pm 17.8 W 27 31 1010.1 - 0.0 - - - - - - -
14/06:30pm 18.7 W 29 35 1010.2 - 0.0 - - - - - - -
14/06:00pm 19.2 W 33 39 1009.3 - 0.0 - - - - - - -
14/05:30pm 18.9 WSW 35 40 1009.5 - 0.0 - - - - - - -
14/05:00pm 19.8 W 36 43 1008.8 - 0.0 - - - - - - -
14/04:30pm 19.8 W 36 43 1008.6 - 0.0 - - - - - - -
14/04:21pm 19.8 W 31 41 1008.7 - 0.0 - - - - - - -
14/04:00pm 18.2 W 35 41 1008.8 - 0.0 - - - - - - -
14/03:38pm 17.8 W 34 44 1008.9 - 0.0 - - - - - - -
14/03:30pm 17.8 W 36 44 1008.7 - 0.0 - - - - - - -
14/02:30pm 20.6 W 35 41 1008.7 - 0.0 - - - - - - -
14/02:00pm 20.9 W 36 43 1008.8 - 0.0 - - - - - - -
14/01:30pm 20.9 W 34 40 1008.8 - 0.0 - - - - - - -
14/01:00pm 18.9 W 34 40 1008.7 - 0.0 - - - - - - -
14/12:30pm 19.7 W 32 38 1009.0 - 0.0 - - - - - - -
14/12:00pm 20.0 W 30 35 1008.8 - 0.0 - - - - - - -
14/11:30am 19.7 W 30 36 1009.1 - 0.0 - - - - - - -
14/11:00am 19.5 W 33 37 1008.8 - 0.0 - - - - - - -
14/10:30am 18.8 W 24 31 1008.9 - 0.0 - - - - - - -
14/10:28am 19.2 W 23 31 1009.0 - 0.0 - - - - - - -
14/10:00am 16.7 W 34 39 1008.7 - 0.0 - - - - - - -
14/09:48am 17.0 W 28 38 1008.7 - 0.0 - - - - - - -
14/09:30am 18.1 W 26 31 1008.7 - 0.0 - - - - - - -
14/09:00am 18.9 W 24 28 1008.5 - 0.2 - - - - - - -
14/08:30am 17.9 W 27 31 1008.7 - 0.2 - - - - - - -
14/08:00am 17.2 W 28 34 1008.3 - 0.2 - - - - - - -
14/07:30am 17.2 W 29 32 1007.8 - 0.2 - - - - - - -
14/07:00am 17.0 W 30 37 1007.5 - 0.2 - - - - - - -
14/06:30am 17.1 W 24 31 1007.1 - 0.2 - - - - - - -
14/06:00am 17.0 W 23 27 1007.0 - 0.2 - - - - - - -
14/05:30am 17.0 W 29 34 1006.9 - 0.2 - - - - - - -
14/05:00am 17.1 W 34 39 1006.1 - 0.2 - - - - - - -
14/04:30am 17.3 W 32 36 1006.0 - 0.0 - - - - - - -
14/04:00am 17.7 W 29 35 1006.3 - 0.0 - - - - - - -
14/03:30am 17.3 W 27 32 1006.0 - 0.0 - - - - - - -
14/03:00am 17.2 W 30 35 1005.9 - 0.0 - - - - - - -
14/02:30am 17.8 W 21 25 1006.8 - 0.0 - - - - - - -
14/02:00am 17.7 W 21 24 1007.1 - 0.0 - - - - - - -
14/01:30am 17.6 W 19 22 1007.5 - 0.0 - - - - - - -
14/01:00am 17.4 WSW 22 25 1007.5 - 0.0 - - - - - - -
14/12:30am 17.5 WSW 22 26 1007.6 - 0.0 - - - - - - -
14/12:00am 18.5 W 20 24 1007.3 - 0.0 - - - - - - -
 
Date/Time
EDT
Temp

°C
Wind Pressure Rain
since 9am
mm
Weather Cloud Vis
km
Sea
Height
m
Swell
Dir
 
Speed
knots
Gust
knots
hPa Trend Height
m
Period
s
Dir
13/11:30pm 18.7 W 21 24 1007.6 - 0.0 - - - - - - -
13/11:00pm 18.8 W 20 23 1008.0 - 0.0 - - - - - - -
13/10:30pm 18.6 W 17 20 1008.1 - 0.0 - - - - - - -
13/10:00pm 18.5 WSW 17 19 1007.9 - 0.0 - - - - - - -
13/09:30pm 18.5 W 18 21 1007.6 - 0.0 - - - - - - -
13/09:00pm 18.7 WSW 15 17 1007.4 - 0.0 - - - - - - -
13/08:30pm 18.7 WSW 17 21 1007.3 - 0.0 - - - - - - -
13/08:00pm 18.9 WSW 20 23 1007.1 - 0.0 - - - - - - -
13/07:30pm 19.4 WSW 16 21 1006.6 - 0.0 - - - - - - -
13/07:00pm 20.1 WSW 19 23 1006.4 - 0.0 - - - - - - -
13/06:30pm 20.5 WSW 23 25 1005.9 - 0.0 - - - - - - -
13/06:00pm 20.8 WSW 22 25 1005.6 - 0.0 - - - - - - -
13/05:30pm 21.0 WSW 25 28 1005.8 - 0.0 - - - - - - -
13/05:00pm 21.2 WSW 27 30 1005.7 - 0.0 - - - - - - -
13/04:30pm 21.3 WSW 31 35 1005.5 - 0.0 - - - - - - -
13/04:00pm 21.5 WSW 32 36 1005.2 - 0.0 - - - - - - -
13/03:30pm 22.5 WSW 31 34 1005.6 - 0.0 - - - - - - -
13/03:00pm 22.3 W 28 31 1005.3 - 0.0 - - - - - - -
13/02:30pm 22.6 W 23 28 1006.1 - 0.0 - - - - - - -
13/02:00pm 23.0 W 21 24 1006.7 - 0.0 - - - - - - -
13/01:30pm 23.1 W 19 23 1007.1 - 0.0 - - - - - - -
13/01:00pm 22.8 W 17 22 1007.1 - 0.0 - - - - - - -
13/12:30pm 21.4 W 25 28 1006.9 - 0.0 - - - - - - -
13/12:00pm 22.5 W 17 21 1007.3 - 0.0 - - - - - - -
13/11:30am 21.0 W 10 11 1007.6 - 0.0 - - - - - - -
13/11:00am 19.6 W 9 13 1007.6 - 0.0 - - - - - - -
13/10:30am 18.9 WSW 11 14 1007.9 - 0.0 - - - - - - -
13/10:00am 19.1 NNW 7 12 1007.5 - 0.0 - - - - - - -
13/09:30am 19.0 NW 10 13 1007.9 - 0.0 - - - - - - -
13/09:00am 18.9 NNW 10 13 1007.7 - 0.0 - - - - - - -
13/08:30am 18.9 N 12 15 1008.0 - 0.0 - - - - - - -
13/08:00am 18.7 N 13 16 1007.8 - 0.0 - - - - - - -
13/07:30am 18.4 NNE 15 17 1007.6 - 0.0 - - - - - - -
13/07:00am 18.4 NNE 14 17 1007.4 - 0.0 - - - - - - -
13/06:30am 18.8 NNE 15 17 1007.4 - 0.0 - - - - - - -
13/06:00am 18.9 NNE 13 14 1007.2 - 0.0 - - - - - - -
13/05:30am 18.9 NNE 12 13 1007.7 - 0.0 - - - - - - -
13/05:00am 18.7 NNE 11 12 1007.9 - 0.0 - - - - - - -
13/04:30am 18.7 NNE 11 11 1008.2 - 0.0 - - - - - - -
13/04:00am 18.5 NNE 11 12 1008.6 - 0.0 - - - - - - -
13/03:30am 18.5 NNE 11 13 1008.9 - 0.0 - - - - - - -
13/03:00am 18.5 NNE 12 13 1008.9 - 0.0 - - - - - - -
13/02:30am 18.5 NNE 12 14 1009.6 - 0.0 - - - - - - -
13/02:00am 18.4 NNE 12 15 1009.9 - 0.0 - - - - - - -
13/01:30am 18.4 NNE 14 16 1010.5 - 0.0 - - - - - - -
13/01:00am 18.3 NNE 14 16 1010.9 - 0.0 - - - - - - -
13/12:30am 18.2 NNE 13 15 1011.2 - 0.0 - - - - - - -
13/12:00am 18.0 NNE 13 14 1011.5 - 0.0 - - - - - - -
 
Date/Time
EDT
Temp

°C
Wind Pressure Rain
since 9am
mm
Weather Cloud Vis
km
Sea
Height
m
Swell
Dir
 
Speed
knots
Gust
knots
hPa Trend Height
m
Period
s
Dir
12/11:30pm 18.2 NNE 12 13 1012.2 - 0.0 - - - - - - -
12/11:00pm 18.2 NNE 11 13 1012.5 - 0.0 - - - - - - -
12/10:30pm 18.1 NNE 11 13 1013.0 - 0.0 - - - - - - -
12/10:00pm 18.0 NE 9 11 1013.2 - 0.0 - - - - - - -
12/09:30pm 18.1 NE 11 13 1013.1 - 0.0 - - - - - - -
12/09:00pm 18.0 ENE 10 11 1012.6 - 0.0 - - - - - - -
12/08:30pm 18.0 ENE 11 12 1013.0 - 0.0 - - - - - - -
12/08:00pm 18.4 ENE 9 10 1013.3 - 0.0 - - - - - - -
12/07:30pm 19.3 ENE 10 12 1013.0 - 0.0 - - - - - - -
12/07:00pm 20.5 E 9 10 1013.2 - 0.0 - - - - - - -
12/06:30pm 20.7 ENE 8 9 1013.3 - 0.0 - - - - - - -
12/06:00pm 21.3 E 10 12 1013.0 - 0.0 - - - - - - -
12/05:30pm 21.7 E 10 11 1013.5 - 0.0 - - - - - - -
12/05:00pm 21.5 E 9 11 1013.7 - 0.0 - - - - - - -
12/04:30pm 21.6 E 8 10 1014.1 - 0.0 - - - - - - -
12/04:00pm 21.9 E 8 10 1014.4 - 0.0 - - - - - - -
12/03:30pm 22.0 E 8 11 1014.7 - 0.0 - - - - - - -
12/03:00pm 21.8 E 8 10 1014.7 - 0.0 - - - - - - -
12/02:30pm 22.2 E 7 10 1015.3 - 0.0 - - - - - - -
12/02:00pm 22.3 E 7 11 1015.6 - 0.0 - - - - - - -
12/01:30pm 22.5 ESE 8 11 1015.7 - 0.0 - - - - - - -
12/01:00pm 22.2 SE 7 11 1015.9 - 0.0 - - - - - - -
12/12:30pm 21.4 S 5 9 1016.4 - 0.0 - - - - - - -
12/12:00pm 19.8 WSW 6 8 1016.6 - 0.0 - - - - - - -
12/11:30am 20.1 SW 5 6 1016.9 - 0.0 - - - - - - -
12/11:00am 21.5 ENE 5 7 1017.1 - 0.0 - - - - - - -
12/10:30am 20.8 ENE 5 8 1017.2 - 0.0 - - - - - - -

Other Formats:

Comma delimited format used in spreadsheet applications
http://www.bom.gov.au/fwo/IDT60701/IDT60701.94949.axf

JavaScript Object Notation format (JSON) in row-major order
http://www.bom.gov.au/fwo/IDT60701/IDT60701.94949.json